메인 페이지
METAR-TAF:

METAR-TAF

공항 :

머리디언, 미시시피, 미국

위도: 32-32-47N, 경도: 088-32-35W, 고도: 96m

현재 날씨관측

예보는 24분 전, 00:56시(UTC)에 발표되었습니다.
무풍
온도 7°C
습도 70%
기압 1019 hPa
시정: 16.1km
맑음

METAR: KNMM 170056Z AUTO 00000KT 10SM CLR 07/02 A3010 RMK AO2 SLP207 T00720017 $

시각: 19:20 (01:20 UTC)

예보

예보 대상 시간: 16일 23시부터 17일 23시까지 (UTC)
여러 방향의 바람 6kt
시정: 1721m
맑음

TAF: KNMM 1623/1723 VRB06KT 9999 SKC QNH3010INS AUTOMATED SENSOR METWATCH 1623 TIL 1721 T01/1712Z T17/1721Z FN00216

4,000개 이상의 공항 관측 자료 및 예보 (METAR 및 TAF 보고).

지도상에서 검색 가능한 기상관측소가 노란 점과 빨간 점으로 표시되어 있습니다.

기상관측소 명을 보려면 표시 위로 마우스를 이동하세요.

날씨 관측과 예보를 보려면 클릭하세요.

지도 변경 : 확대하려면 엑스 표시가 있는 녹색 버튼, 축소하려면 빼기 표시가 있는 녹색 버튼, 다음 페이지의 지도를 보려면 녹색 화살표를 클릭하세요.


METAR-TAF: